Time;durP1;ratioP1;P1;durP2;ratioP2;P2;SDS_P1;SDS_P2;PMS_P1;PMS_P2;Temp;Humidity;BMP_temperature;BMP_pressure;BME280_temperature;BME280_humidity;BME280_pressure;Samples;Min_cycle;Max_cycle;Signal;HPM_P1;HPM_P2
2023/08/05 00:02:21;;;;;;;1.50;1.00;;;24.60;55.40;;;;;;5014876;28;20191;-72
2023/08/05 00:04:47;;;;;;;1.20;0.90;;;24.60;55.40;;;;;;4997216;28;20180;-72
2023/08/05 00:07:13;;;;;;;1.37;0.97;;;24.60;55.40;;;;;;5014734;28;20211;-72
2023/08/05 00:09:38;;;;;;;1.20;0.90;;;24.60;55.50;;;;;;5014526;28;20555;-72
2023/08/05 00:12:04;;;;;;;1.13;0.90;;;24.60;55.50;;;;;;4997292;28;20234;-72
2023/08/05 00:14:30;;;;;;;0.90;0.80;;;24.60;55.50;;;;;;5014836;28;20172;-72
2023/08/05 00:16:55;;;;;;;1.40;0.97;;;24.60;55.40;;;;;;5014631;28;20168;-72
2023/08/05 00:19:21;;;;;;;1.40;0.97;;;24.60;55.40;;;;;;5014478;28;20557;-72
2023/08/05 00:21:46;;;;;;;3.40;1.03;;;24.60;55.40;;;;;;5014533;28;20207;-72
2023/08/05 00:24:12;;;;;;;1.17;1.03;;;24.60;55.50;;;;;;4997083;28;20181;-71
2023/08/05 00:26:37;;;;;;;2.23;0.90;;;24.60;55.50;;;;;;5014384;28;20188;-71
2023/08/05 00:29:03;;;;;;;1.20;0.90;;;24.60;55.50;;;;;;5014196;28;20219;-72
2023/08/05 00:31:28;;;;;;;1.57;1.03;;;24.60;55.50;;;;;;5014404;28;20259;-71
2023/08/05 00:33:54;;;;;;;0.93;0.80;;;24.60;55.50;;;;;;5014300;28;20175;-72
2023/08/05 00:36:20;;;;;;;1.00;0.80;;;24.60;55.50;;;;;;5014211;28;20247;-71
2023/08/05 00:38:45;;;;;;;1.10;0.90;;;24.60;55.50;;;;;;5014261;28;20196;-72
2023/08/05 00:41:11;;;;;;;1.40;0.97;;;24.60;55.50;;;;;;5014033;28;20196;-71
2023/08/05 00:43:37;;;;;;;2.57;1.00;;;24.60;55.50;;;;;;5014119;28;20267;-71
2023/08/05 00:46:02;;;;;;;1.30;1.00;;;24.60;55.50;;;;;;5014035;28;20234;-70
2023/08/05 00:48:28;;;;;;;4.40;1.17;;;24.60;55.50;;;;;;5013850;28;20215;-72
2023/08/05 00:50:55;;;;;;;1.00;0.90;;;24.60;55.50;;;;;;5014287;28;20615;-69
2023/08/05 00:53:24;;;;;;;1.33;1.00;;;24.60;55.50;;;;;;5013868;28;20215;-72
2023/08/05 00:55:53;;;;;;;1.03;0.90;;;24.60;55.50;;;;;;5013871;28;20919;-72
2023/08/05 00:58:23;;;;;;;1.13;1.00;;;24.60;55.50;;;;;;5013812;28;20461;-71
2023/08/05 01:00:49;;;;;;;1.40;0.90;;;24.60;55.50;;;;;;5013816;28;20815;-72
2023/08/05 01:03:15;;;;;;;1.33;1.10;;;24.60;55.50;;;;;;5013760;28;20557;-72
2023/08/05 01:05:42;;;;;;;1.00;0.80;;;24.60;55.50;;;;;;5012945;28;20434;-72
2023/08/05 01:08:10;;;;;;;1.40;1.30;;;24.60;56.00;;;;;;4995226;28;20455;-73
2023/08/05 01:10:36;;;;;;;1.50;1.00;;;24.60;55.50;;;;;;5011753;28;20812;-70
2023/08/05 01:13:01;;;;;;;1.17;1.00;;;24.60;55.50;;;;;;5012153;28;20568;-72
2023/08/05 01:15:27;;;;;;;1.83;0.93;;;24.60;55.50;;;;;;5012815;28;20177;-70
2023/08/05 01:17:55;;;;;;;1.20;1.10;;;24.60;55.50;;;;;;4995459;28;20181;-71
2023/08/05 01:20:38;;;;;;;1.10;1.00;;;24.60;55.50;;;;;;5013092;28;20569;-71
2023/08/05 01:23:17;;;;;;;2.70;1.33;;;24.60;55.50;;;;;;5013533;28;20454;-72
2023/08/05 01:25:44;;;;;;;1.63;1.03;;;24.60;55.50;;;;;;5013417;28;20486;-71
2023/08/05 01:28:10;;;;;;;1.47;1.00;;;24.60;55.50;;;;;;4998241;28;20462;-70
2023/08/05 01:30:37;;;;;;;1.10;1.00;;;24.50;55.40;;;;;;5030546;28;20433;-71
2023/08/05 01:33:03;;;;;;;1.10;0.90;;;24.60;55.50;;;;;;5032900;28;20414;-71
2023/08/05 01:35:29;;;;;;;1.90;1.00;;;24.60;55.50;;;;;;5032960;28;20411;-72
2023/08/05 01:37:55;;;;;;;1.20;1.03;;;24.60;55.50;;;;;;5033025;28;20406;-71
2023/08/05 01:40:20;;;;;;;1.10;1.00;;;24.60;55.50;;;;;;5032788;28;20254;-72
2023/08/05 01:42:46;;;;;;;1.57;1.03;;;24.60;55.50;;;;;;5032822;28;20177;-72
2023/08/05 01:45:11;;;;;;;1.67;1.50;;;24.60;55.50;;;;;;5032671;28;20180;-72
2023/08/05 01:47:37;;;;;;;1.97;1.10;;;24.60;55.50;;;;;;5032614;28;20241;-72
2023/08/05 01:50:03;;;;;;;1.47;1.00;;;24.60;55.50;;;;;;5032619;28;20187;-72
2023/08/05 01:52:28;;;;;;;1.10;0.87;;;24.60;55.50;;;;;;5032616;28;20182;-72
2023/08/05 01:54:54;;;;;;;1.30;1.00;;;24.60;55.50;;;;;;5014801;28;20175;-72
2023/08/05 01:57:19;;;;;;;1.93;1.00;;;24.60;55.40;;;;;;5014779;28;20266;-71
2023/08/05 01:59:45;;;;;;;3.67;1.00;;;24.60;55.50;;;;;;5032493;28;20198;-72
2023/08/05 02:02:11;;;;;;;1.10;0.80;;;24.60;55.50;;;;;;5032531;28;20593;-71
2023/08/05 02:04:36;;;;;;;1.30;1.03;;;24.60;55.50;;;;;;5032508;28;20171;-71
2023/08/05 02:07:02;;;;;;;1.30;1.00;;;24.60;55.50;;;;;;5032409;28;20167;-71
2023/08/05 02:09:28;;;;;;;2.17;1.10;;;24.60;56.00;;;;;;5032501;28;20215;-71
2023/08/05 02:11:54;;;;;;;1.47;1.20;;;24.60;55.50;;;;;;5032336;28;20172;-73
2023/08/05 02:14:19;;;;;;;0.97;0.83;;;24.60;55.50;;;;;;5032306;28;20927;-69
2023/08/05 02:16:45;;;;;;;1.40;0.97;;;24.60;55.50;;;;;;5032247;28;20206;-72
2023/08/05 02:19:10;;;;;;;1.20;1.10;;;24.60;55.50;;;;;;5032336;28;20737;-71
2023/08/05 02:21:36;;;;;;;1.10;0.90;;;24.60;55.50;;;;;;5032494;28;20180;-71
2023/08/05 02:24:01;;;;;;;1.33;1.20;;;24.60;55.50;;;;;;5014776;28;20172;-71
2023/08/05 02:26:27;;;;;;;1.57;1.17;;;24.60;55.50;;;;;;5014463;28;20175;-71
2023/08/05 02:28:53;;;;;;;1.50;1.10;;;24.60;55.50;;;;;;5032187;28;20734;-70
2023/08/05 02:31:18;;;;;;;1.13;0.90;;;24.60;55.50;;;;;;5032080;28;20199;-71
2023/08/05 02:33:44;;;;;;;1.20;1.00;;;24.60;55.50;;;;;;5031870;28;20222;-71
2023/08/05 02:36:10;;;;;;;1.30;1.00;;;24.60;55.50;;;;;;5014227;28;20210;-70
2023/08/05 02:38:35;;;;;;;1.03;0.83;;;24.60;55.50;;;;;;5031881;28;20178;-72
2023/08/05 02:41:05;;;;;;;1.10;1.00;;;24.60;55.50;;;;;;5031877;28;20834;-72
2023/08/05 02:43:31;;;;;;;1.50;1.07;;;24.60;55.40;;;;;;5014246;28;20229;-72
2023/08/05 02:45:57;;;;;;;1.30;1.20;;;24.60;55.40;;;;;;5014448;28;20410;-72
2023/08/05 02:48:24;;;;;;;1.03;0.90;;;24.60;55.40;;;;;;5031703;28;20437;-72
2023/08/05 02:50:51;;;;;;;1.10;0.90;;;24.60;55.50;;;;;;5031938;28;20414;-70
2023/08/05 02:53:16;;;;;;;1.83;1.10;;;24.60;56.00;;;;;;5032103;28;20415;-72
2023/08/05 02:55:42;;;;;;;1.67;1.00;;;24.60;55.40;;;;;;5032092;28;20907;-72
2023/08/05 02:58:08;;;;;;;1.10;0.90;;;24.60;55.40;;;;;;5031795;28;20199;-71
2023/08/05 03:00:34;;;;;;;1.53;1.13;;;24.60;55.40;;;;;;5031793;28;20430;-72
2023/08/05 03:03:00;;;;;;;1.20;0.90;;;24.60;55.40;;;;;;5031674;28;20244;-72
2023/08/05 03:05:25;;;;;;;1.03;0.90;;;24.60;55.40;;;;;;5031722;28;20183;-72
2023/08/05 03:07:51;;;;;;;1.10;1.00;;;24.60;55.40;;;;;;5031624;28;20209;-72
2023/08/05 03:10:17;;;;;;;1.00;0.80;;;24.60;55.40;;;;;;5031523;28;20260;-72
2023/08/05 03:12:43;;;;;;;1.57;1.23;;;24.60;55.40;;;;;;5015232;28;20498;-72
2023/08/05 03:15:09;;;;;;;1.27;1.17;;;24.60;55.40;;;;;;4994005;28;20581;-71
2023/08/05 03:17:35;;;;;;;1.10;1.00;;;24.60;55.40;;;;;;5010446;28;20165;-72
2023/08/05 03:20:04;;;;;;;1.87;1.20;;;24.60;55.40;;;;;;5009895;28;20978;-72
2023/08/05 03:22:30;;;;;;;1.50;1.00;;;24.60;55.40;;;;;;5015911;28;20790;-72
2023/08/05 03:24:55;;;;;;;2.17;1.10;;;24.60;55.50;;;;;;5030077;28;20418;-71
2023/08/05 03:27:21;;;;;;;1.00;0.90;;;24.60;55.40;;;;;;5030848;28;20528;-72
2023/08/05 03:29:47;;;;;;;1.20;0.90;;;24.60;55.40;;;;;;5031416;28;20195;-71
2023/08/05 03:32:13;;;;;;;1.53;1.37;;;24.60;55.40;;;;;;5031493;28;20172;-72
2023/08/05 03:34:38;;;;;;;1.13;1.03;;;24.60;55.40;;;;;;5031427;28;20421;-72
2023/08/05 03:37:04;;;;;;;1.13;0.93;;;24.60;55.50;;;;;;5031404;28;20180;-72
2023/08/05 03:39:30;;;;;;;1.30;0.90;;;24.60;55.50;;;;;;5031604;28;20567;-72
2023/08/05 03:41:55;;;;;;;1.30;1.20;;;24.60;55.50;;;;;;5031244;28;20434;-71
2023/08/05 03:44:21;;;;;;;1.23;1.00;;;24.50;55.30;;;;;;5032190;28;20179;-72
2023/08/05 03:46:47;;;;;;;1.67;1.10;;;24.50;55.40;;;;;;5034977;28;20176;-72
2023/08/05 03:49:12;;;;;;;1.60;1.00;;;24.50;55.40;;;;;;5034754;28;20692;-71
2023/08/05 03:51:38;;;;;;;1.33;1.07;;;24.50;55.50;;;;;;5034910;28;20663;-72
2023/08/05 03:54:03;;;;;;;1.23;0.90;;;24.50;55.40;;;;;;5034883;28;20171;-72
2023/08/05 03:56:30;;;;;;;1.87;1.23;;;24.50;55.40;;;;;;5034769;28;20190;-72
2023/08/05 03:58:56;;;;;;;1.20;0.97;;;24.50;55.40;;;;;;5034720;28;20196;-72
2023/08/05 04:01:22;;;;;;;1.10;1.00;;;24.50;55.40;;;;;;5034663;28;20447;-71
2023/08/05 04:03:49;;;;;;;1.40;1.10;;;24.50;55.40;;;;;;5016854;28;20422;-72
2023/08/05 04:06:15;;;;;;;1.00;0.90;;;24.50;55.40;;;;;;5034601;28;20906;-72
2023/08/05 04:08:41;;;;;;;1.13;0.93;;;24.50;55.40;;;;;;5034466;28;20453;-72
2023/08/05 04:11:08;;;;;;;1.30;1.10;;;24.50;55.40;;;;;;5034520;28;20782;-72
2023/08/05 04:13:35;;;;;;;1.20;1.10;;;24.50;55.40;;;;;;5016737;28;20180;-72
2023/08/05 04:16:03;;;;;;;1.97;0.97;;;24.50;55.50;;;;;;5034422;28;20434;-72
2023/08/05 04:18:30;;;;;;;0.90;0.80;;;24.50;55.40;;;;;;5034290;28;20410;-72
2023/08/05 04:20:57;;;;;;;1.93;0.97;;;24.50;55.40;;;;;;5034300;28;20783;-72
2023/08/05 04:23:25;;;;;;;1.00;0.90;;;24.50;55.40;;;;;;5034304;28;20851;-71
2023/08/05 04:25:51;;;;;;;1.20;1.10;;;24.50;55.40;;;;;;5034241;28;20406;-72
2023/08/05 04:28:17;;;;;;;1.30;1.00;;;24.50;55.50;;;;;;5034140;28;20453;-71
2023/08/05 04:30:42;;;;;;;1.40;1.10;;;24.50;55.50;;;;;;5034121;28;20484;-72
2023/08/05 04:33:08;;;;;;;1.37;1.00;;;24.50;55.40;;;;;;5034098;28;20664;-71
2023/08/05 04:35:35;;;;;;;1.50;0.90;;;24.50;55.50;;;;;;5034369;28;20171;-72
2023/08/05 04:38:00;;;;;;;1.10;1.00;;;24.50;55.50;;;;;;5034029;28;20174;-72
2023/08/05 04:40:26;;;;;;;1.53;1.03;;;24.50;55.50;;;;;;5033888;28;20442;-72
2023/08/05 04:42:51;;;;;;;1.30;1.10;;;24.50;55.50;;;;;;5016183;28;20778;-70
2023/08/05 04:45:17;;;;;;;1.50;1.00;;;24.50;55.50;;;;;;5033926;28;20172;-72
2023/08/05 04:47:43;;;;;;;1.07;0.97;;;24.50;55.40;;;;;;5033767;28;20302;-72
2023/08/05 04:50:09;;;;;;;1.10;0.93;;;24.50;55.50;;;;;;5015955;28;20242;-72
2023/08/05 04:52:34;;;;;;;1.70;1.10;;;24.50;55.50;;;;;;5016018;28;20203;-71
2023/08/05 04:55:09;;;;;;;1.10;0.90;;;24.50;55.50;;;;;;5033396;28;20406;-71
2023/08/05 04:57:35;;;;;;;1.00;0.90;;;24.50;55.40;;;;;;5032919;28;20201;-72
2023/08/05 05:00:00;;;;;;;1.60;1.20;;;24.50;55.50;;;;;;5033603;28;20844;-72
2023/08/05 05:02:26;;;;;;;1.73;1.10;;;24.50;55.50;;;;;;5033531;28;20497;-72
2023/08/05 05:04:52;;;;;;;1.00;0.90;;;24.50;55.40;;;;;;5033543;28;20270;-72
2023/08/05 05:07:18;;;;;;;1.67;1.10;;;24.50;55.40;;;;;;5033530;28;20176;-72
2023/08/05 05:09:44;;;;;;;1.00;0.83;;;24.50;55.50;;;;;;5015585;28;20208;-72
2023/08/05 05:12:09;;;;;;;1.00;0.90;;;24.50;55.50;;;;;;5033357;28;20481;-72
2023/08/05 05:14:45;;;;;;;1.10;0.90;;;24.50;55.50;;;;;;5033327;28;20168;-72
2023/08/05 05:17:14;;;;;;;1.50;1.10;;;24.50;55.50;;;;;;5033374;28;20151;-71
2023/08/05 05:19:39;;;;;;;1.50;1.00;;;24.50;55.50;;;;;;5033205;28;20795;-72
2023/08/05 05:22:05;;;;;;;1.10;0.97;;;24.50;55.50;;;;;;5033303;28;20399;-70
2023/08/05 05:24:31;;;;;;;1.20;1.10;;;24.50;55.50;;;;;;5033175;28;20168;-72
2023/08/05 05:26:57;;;;;;;1.20;1.10;;;24.50;55.50;;;;;;5033024;28;20171;-72
2023/08/05 05:29:23;;;;;;;1.10;0.90;;;24.50;55.50;;;;;;5032806;28;20235;-72
2023/08/05 05:31:48;;;;;;;1.30;0.93;;;24.50;55.60;;;;;;5032941;28;20814;-71
2023/08/05 05:34:14;;;;;;;1.10;0.93;;;24.50;55.60;;;;;;5032927;28;20406;-72
2023/08/05 05:36:40;;;;;;;1.20;1.00;;;24.50;55.60;;;;;;5032903;28;20171;-72
2023/08/05 05:39:05;;;;;;;1.10;1.00;;;24.50;55.60;;;;;;5032679;28;20691;-72
2023/08/05 05:41:31;;;;;;;1.20;0.97;;;24.50;55.60;;;;;;5032683;28;20188;-71
2023/08/05 05:43:58;;;;;;;1.27;0.80;;;24.50;55.60;;;;;;5014902;28;20190;-71
2023/08/05 05:46:25;;;;;;;1.20;0.93;;;24.40;55.50;;;;;;5032672;28;20172;-72
2023/08/05 05:48:51;;;;;;;1.23;1.03;;;24.50;55.60;;;;;;5032511;28;20462;-72
2023/08/05 05:51:16;;;;;;;1.67;1.17;;;24.40;55.50;;;;;;5025557;28;20419;-72
2023/08/05 05:53:42;;;;;;;1.83;1.10;;;24.50;55.60;;;;;;5012874;28;20176;-71
2023/08/05 05:56:08;;;;;;;1.40;1.27;;;24.50;55.60;;;;;;4993775;28;20181;-72
2023/08/05 05:58:35;;;;;;;1.10;0.90;;;24.50;55.60;;;;;;5011283;28;20419;-71
2023/08/05 06:01:01;;;;;;;1.20;1.00;;;24.50;55.60;;;;;;4994090;28;20176;-72
2023/08/05 06:03:27;;;;;;;1.53;1.13;;;24.50;55.60;;;;;;5012574;28;20978;-72
2023/08/05 06:05:53;;;;;;;1.20;1.10;;;24.50;55.60;;;;;;5012660;28;20419;-72
2023/08/05 06:08:18;;;;;;;1.47;1.37;;;24.50;55.60;;;;;;5012375;28;20222;-72
2023/08/05 06:10:44;;;;;;;1.97;1.30;;;24.50;55.60;;;;;;4994773;28;20196;-71
2023/08/05 06:13:10;;;;;;;1.57;1.07;;;24.50;55.60;;;;;;5012609;28;20219;-71
2023/08/05 06:15:40;;;;;;;1.10;1.00;;;24.50;55.50;;;;;;5012792;28;20446;-71
2023/08/05 06:18:10;;;;;;;1.50;1.17;;;24.50;55.50;;;;;;4995025;28;20263;-71
2023/08/05 06:20:36;;;;;;;1.43;1.10;;;24.50;55.50;;;;;;5012322;28;20481;-72
2023/08/05 06:23:01;;;;;;;1.10;0.90;;;24.50;55.60;;;;;;5012456;28;20411;-71
2023/08/05 06:25:28;;;;;;;1.40;1.10;;;24.50;55.50;;;;;;5012417;28;20415;-73
2023/08/05 06:27:53;;;;;;;1.10;0.90;;;24.50;55.50;;;;;;5012342;28;20200;-72
2023/08/05 06:30:19;;;;;;;1.40;1.10;;;24.50;55.50;;;;;;5012356;28;20428;-72
2023/08/05 06:32:44;;;;;;;1.33;1.20;;;24.50;55.60;;;;;;5013062;28;20590;-72
2023/08/05 06:35:10;;;;;;;1.43;1.10;;;24.50;55.50;;;;;;5012845;28;20168;-70
2023/08/05 06:37:35;;;;;;;1.20;1.00;;;24.50;55.60;;;;;;5012961;28;20259;-72
2023/08/05 06:40:01;;;;;;;1.30;1.20;;;24.50;55.60;;;;;;4994740;28;20216;-72
2023/08/05 06:42:27;;;;;;;1.20;1.10;;;24.50;55.60;;;;;;5012749;28;20188;-72
2023/08/05 06:44:54;;;;;;;1.33;1.10;;;24.50;55.60;;;;;;4994821;28;20184;-72
2023/08/05 06:47:19;;;;;;;1.50;1.20;;;24.50;55.60;;;;;;4995130;28;20172;-72
2023/08/05 06:49:45;;;;;;;1.20;0.90;;;24.50;55.60;;;;;;5012473;28;20455;-72
2023/08/05 06:52:10;;;;;;;1.40;1.20;;;24.50;55.60;;;;;;5012175;28;20541;-72
2023/08/05 06:54:41;;;;;;;1.83;1.03;;;24.50;55.60;;;;;;5013201;28;20232;-73
2023/08/05 06:57:07;;;;;;;1.10;1.00;;;24.50;55.60;;;;;;5012845;28;20171;-71
2023/08/05 06:59:33;;;;;;;1.40;1.20;;;24.50;55.60;;;;;;5011990;28;20544;-72
2023/08/05 07:02:00;;;;;;;1.27;1.17;;;24.50;55.70;;;;;;5012164;28;20514;-71
2023/08/05 07:04:25;;;;;;;1.53;0.90;;;24.50;55.70;;;;;;5012129;28;20506;-71
2023/08/05 07:06:51;;;;;;;1.70;1.33;;;24.50;55.70;;;;;;5012110;28;20503;-71
2023/08/05 07:09:16;;;;;;;1.53;1.30;;;24.50;55.60;;;;;;5011865;28;20555;-71
2023/08/05 07:11:42;;;;;;;1.50;1.30;;;24.50;55.60;;;;;;5012034;28;20188;-71
2023/08/05 07:14:08;;;;;;;1.90;1.70;;;24.50;55.50;;;;;;5011964;28;20180;-71
2023/08/05 07:16:33;;;;;;;3.07;1.47;;;24.50;55.50;;;;;;5012022;28;20173;-70
2023/08/05 07:18:59;;;;;;;1.40;1.30;;;24.50;55.50;;;;;;5011740;28;20719;-72
2023/08/05 07:21:24;;;;;;;2.00;1.43;;;24.50;55.50;;;;;;5015145;28;20522;-72
2023/08/05 07:23:50;;;;;;;1.60;1.50;;;24.50;55.50;;;;;;5015711;28;20222;-71
2023/08/05 07:26:16;;;;;;;1.57;1.40;;;24.50;55.40;;;;;;5015427;28;20649;-72
2023/08/05 07:28:42;;;;;;;1.73;1.60;;;24.50;55.40;;;;;;4997820;28;20471;-71
2023/08/05 07:31:10;;;;;;;2.23;1.77;;;24.50;55.40;;;;;;4997874;28;20195;-69
2023/08/05 07:33:36;;;;;;;3.47;1.40;;;24.50;55.40;;;;;;5015490;28;20177;-70
2023/08/05 07:36:11;;;;;;;2.20;1.70;;;24.50;55.40;;;;;;5015371;28;20411;-72
2023/08/05 07:38:42;;;;;;;1.50;1.23;;;24.50;55.40;;;;;;5015375;28;20418;-71
2023/08/05 07:41:07;;;;;;;2.20;1.80;;;24.50;55.40;;;;;;5015492;28;20521;-70
2023/08/05 07:43:35;;;;;;;2.70;1.40;;;24.60;55.40;;;;;;5015427;28;20553;-71
2023/08/05 07:46:02;;;;;;;1.70;1.60;;;24.60;55.40;;;;;;5015181;28;20263;-71
2023/08/05 07:48:34;;;;;;;1.73;1.63;;;24.60;55.40;;;;;;4997419;28;20820;-72
2023/08/05 07:51:00;;;;;;;2.27;1.87;;;24.60;55.40;;;;;;5015141;28;20403;-72
2023/08/05 07:53:28;;;;;;;1.77;1.57;;;24.60;55.40;;;;;;5015253;28;20407;-71
2023/08/05 07:55:54;;;;;;;2.00;1.80;;;24.60;55.30;;;;;;5014883;28;20176;-73
2023/08/05 07:58:21;;;;;;;1.73;1.63;;;24.60;55.30;;;;;;5014802;28;20419;-71
2023/08/05 08:00:46;;;;;;;1.80;1.70;;;24.60;55.30;;;;;;4996999;28;20435;-71
2023/08/05 08:03:12;;;;;;;2.10;1.73;;;24.60;55.20;;;;;;5014815;28;20473;-72
2023/08/05 08:05:37;;;;;;;1.93;1.57;;;24.60;55.20;;;;;;4997097;28;20180;-71
2023/08/05 08:08:03;;;;;;;1.70;1.60;;;24.60;55.20;;;;;;5014578;28;20208;-72
2023/08/05 08:10:29;;;;;;;1.90;1.70;;;24.60;55.20;;;;;;5014827;28;20695;-72
2023/08/05 08:12:54;;;;;;;2.20;1.60;;;24.70;55.30;;;;;;5014616;28;20173;-72
2023/08/05 08:15:21;;;;;;;2.50;1.80;;;24.70;55.30;;;;;;5014565;28;20226;-71
2023/08/05 08:17:46;;;;;;;2.27;1.70;;;24.70;55.30;;;;;;4996748;28;20181;-69
2023/08/05 08:20:12;;;;;;;1.70;1.60;;;24.70;55.30;;;;;;4996782;28;20458;-72
2023/08/05 08:22:38;;;;;;;2.70;1.97;;;24.70;55.30;;;;;;5014593;28;20182;-73
2023/08/05 08:25:04;;;;;;;1.73;1.47;;;24.70;55.30;;;;;;4997128;28;20207;-72
2023/08/05 08:27:30;;;;;;;1.70;1.60;;;24.70;55.30;;;;;;5014590;28;20176;-71
2023/08/05 08:29:55;;;;;;;2.10;1.63;;;24.70;55.30;;;;;;5014090;28;20431;-72
2023/08/05 08:32:21;;;;;;;2.00;1.63;;;24.70;55.30;;;;;;5014504;28;20165;-72
2023/08/05 08:34:46;;;;;;;2.57;1.63;;;24.70;55.30;;;;;;4996905;28;20183;-72
2023/08/05 08:37:12;;;;;;;1.60;1.50;;;24.80;55.30;;;;;;5014568;28;20204;-71
2023/08/05 08:39:37;;;;;;;2.97;1.90;;;24.70;55.30;;;;;;5014540;28;20283;-72
2023/08/05 08:42:04;;;;;;;1.60;1.50;;;24.80;55.30;;;;;;5014258;28;20529;-70
2023/08/05 08:44:32;;;;;;;2.20;2.00;;;24.80;55.30;;;;;;5014370;28;20184;-70
2023/08/05 08:46:57;;;;;;;1.70;1.60;;;24.80;55.30;;;;;;5014443;28;20427;-73
2023/08/05 08:49:23;;;;;;;2.47;1.80;;;24.80;55.30;;;;;;5014424;28;20471;-72
2023/08/05 08:51:50;;;;;;;2.00;1.80;;;24.80;55.30;;;;;;4997201;28;20408;-72
2023/08/05 08:54:17;;;;;;;1.73;1.60;;;24.80;55.40;;;;;;4996675;28;20180;-72
2023/08/05 08:56:43;;;;;;;2.07;1.83;;;24.80;55.30;;;;;;5014370;28;20532;-70
2023/08/05 08:59:09;;;;;;;2.00;1.43;;;24.80;55.30;;;;;;5014055;28;20513;-72
2023/08/05 09:01:38;;;;;;;1.70;1.60;;;24.80;55.30;;;;;;4996665;28;20184;-72
2023/08/05 09:04:06;;;;;;;1.67;1.50;;;24.80;55.30;;;;;;5014368;28;20403;-72
2023/08/05 09:06:32;;;;;;;2.90;1.80;;;24.80;55.30;;;;;;5013918;28;20407;-72
2023/08/05 09:08:57;;;;;;;2.60;1.50;;;24.80;55.30;;;;;;5013741;28;20490;-72
2023/08/05 09:11:23;;;;;;;1.90;1.57;;;24.90;55.40;;;;;;4996261;28;20909;-72
2023/08/05 09:13:50;;;;;;;1.70;1.60;;;24.90;55.40;;;;;;4996144;28;20172;-72
2023/08/05 09:16:15;;;;;;;1.73;1.50;;;24.90;55.40;;;;;;5013847;28;20675;-73
2023/08/05 09:18:54;;;;;;;4.00;1.80;;;24.90;55.40;;;;;;5013739;28;20416;-71
2023/08/05 09:21:27;;;;;;;2.90;1.47;;;24.90;55.50;;;;;;5013879;28;20191;-71
2023/08/05 09:23:54;;;;;;;4.00;1.60;;;24.90;55.50;;;;;;5013539;28;20439;-72
2023/08/05 09:26:30;;;;;;;1.80;1.50;;;24.90;55.40;;;;;;5013455;28;20734;-71
2023/08/05 09:28:57;;;;;;;3.80;1.60;;;24.90;55.40;;;;;;4995992;28;20467;-73
2023/08/05 09:31:23;;;;;;;1.60;1.50;;;24.90;55.40;;;;;;4995620;28;20424;-71
2023/08/05 09:33:48;;;;;;;1.97;1.63;;;24.90;55.40;;;;;;5013364;28;20419;-73
2023/08/05 09:36:14;;;;;;;2.47;1.70;;;24.90;55.40;;;;;;5013314;28;20230;-71
2023/08/05 09:38:44;;;;;;;1.80;1.70;;;24.90;55.40;;;;;;5013248;28;20176;-71
2023/08/05 09:41:10;;;;;;;1.83;1.73;;;24.90;55.40;;;;;;5012962;28;20526;-71
2023/08/05 09:43:40;;;;;;;3.10;1.77;;;24.90;55.40;;;;;;4994797;28;20909;-72
2023/08/05 09:46:11;;;;;;;2.10;1.90;;;24.90;55.50;;;;;;5013014;28;20236;-73
2023/08/05 09:48:46;;;;;;;2.27;1.33;;;24.90;55.40;;;;;;5012849;28;21011;-73
2023/08/05 09:51:16;;;;;;;1.90;1.70;;;24.90;55.40;;;;;;4995407;28;20919;-72
2023/08/05 09:53:43;;;;;;;1.90;1.70;;;24.90;55.40;;;;;;4995245;28;20450;-72
2023/08/05 09:56:10;;;;;;;1.60;1.43;;;24.90;55.40;;;;;;5012851;28;20433;-72
2023/08/05 09:58:37;;;;;;;1.90;1.80;;;24.90;55.40;;;;;;5012778;28;20561;-71
2023/08/05 10:01:07;;;;;;;2.77;1.90;;;24.90;55.40;;;;;;4995010;28;20423;-73
2023/08/05 10:03:36;;;;;;;4.13;2.13;;;24.90;55.40;;;;;;5012710;28;20415;-74
2023/08/05 10:06:04;;;;;;;3.00;1.80;;;24.90;55.40;;;;;;5012835;28;20415;-72
2023/08/05 10:08:32;;;;;;;1.63;1.53;;;24.90;55.40;;;;;;5012365;28;20461;-73
2023/08/05 10:10:59;;;;;;;3.03;1.77;;;24.90;55.40;;;;;;5012793;28;20495;-73
2023/08/05 10:13:26;;;;;;;1.97;1.60;;;24.90;55.40;;;;;;5012582;28;20411;-72
2023/08/05 10:15:54;;;;;;;1.80;1.70;;;24.90;55.40;;;;;;5012420;28;20418;-73
2023/08/05 10:18:21;;;;;;;2.00;1.80;;;24.90;55.40;;;;;;5012443;28;20406;-71
2023/08/05 10:20:53;;;;;;;2.53;1.97;;;24.90;55.40;;;;;;5012220;28;20424;-72
2023/08/05 10:23:18;;;;;;;1.80;1.60;;;24.90;55.40;;;;;;4994910;28;20415;-73
2023/08/05 10:25:49;;;;;;;2.10;1.90;;;24.90;55.40;;;;;;5012484;28;20422;-72
2023/08/05 10:28:25;;;;;;;1.93;1.73;;;24.90;55.40;;;;;;5012222;28;20196;-71
2023/08/05 10:30:51;;;;;;;2.07;1.87;;;25.00;55.50;;;;;;5012538;28;20461;-72
2023/08/05 10:33:20;;;;;;;2.10;1.90;;;24.90;55.40;;;;;;5012403;28;20423;-71
2023/08/05 10:35:48;;;;;;;2.50;1.60;;;25.00;55.50;;;;;;4994557;28;20415;-71
2023/08/05 10:38:23;;;;;;;2.17;1.97;;;25.00;55.40;;;;;;4994591;28;20449;-70
2023/08/05 10:40:55;;;;;;;1.83;1.53;;;25.00;55.40;;;;;;5012154;28;21004;-70
2023/08/05 10:43:30;;;;;;;2.00;1.70;;;25.00;55.40;;;;;;4994574;28;20421;-72
2023/08/05 10:45:57;;;;;;;2.20;1.57;;;25.00;55.40;;;;;;5010962;28;20494;-73
2023/08/05 10:48:30;;;;;;;3.33;2.10;;;25.00;55.40;;;;;;5010949;28;20447;-72
2023/08/05 10:51:03;;;;;;;3.30;2.00;;;25.00;55.40;;;;;;5010933;28;20493;-72
2023/08/05 10:53:30;;;;;;;1.90;1.60;;;25.00;55.40;;;;;;5013562;28;20450;-72
2023/08/05 10:55:56;;;;;;;2.20;1.63;;;25.00;55.30;;;;;;5016219;28;20414;-71
2023/08/05 10:58:29;;;;;;;2.00;1.80;;;25.00;55.30;;;;;;5016247;28;20485;-72
2023/08/05 11:01:00;;;;;;;2.73;1.87;;;25.00;55.30;;;;;;5016173;28;20431;-70
2023/08/05 11:03:43;;;;;;;2.43;2.00;;;25.00;55.30;;;;;;5016166;28;20773;-70
2023/08/05 11:06:11;;;;;;;2.37;1.97;;;25.00;55.30;;;;;;5016391;28;20490;-72
2023/08/05 11:08:38;;;;;;;1.80;1.70;;;25.00;55.30;;;;;;5015821;28;20455;-72
2023/08/05 11:11:06;;;;;;;1.70;1.60;;;25.00;55.30;;;;;;5015808;28;20415;-71
2023/08/05 11:13:48;;;;;;;2.10;1.90;;;25.00;55.30;;;;;;4998146;28;20554;-71
2023/08/05 11:16:16;;;;;;;1.90;1.73;;;25.00;55.40;;;;;;5015928;28;20749;-72
2023/08/05 11:18:46;;;;;;;3.77;2.00;;;25.00;55.30;;;;;;5015660;28;20837;-71
2023/08/05 11:21:15;;;;;;;2.53;2.03;;;25.00;55.30;;;;;;5015744;28;20498;-71
2023/08/05 11:23:42;;;;;;;2.00;1.80;;;25.00;55.30;;;;;;5015712;28;20407;-72
2023/08/05 11:26:09;;;;;;;2.10;1.90;;;25.00;55.30;;;;;;5015881;28;20449;-72
2023/08/05 11:28:40;;;;;;;2.10;1.60;;;25.00;55.30;;;;;;5015755;28;20862;-72
2023/08/05 11:31:06;;;;;;;2.13;1.90;;;25.00;55.30;;;;;;5015574;28;20490;-72
2023/08/05 11:33:32;;;;;;;2.10;1.60;;;25.00;55.30;;;;;;5015522;28;20893;-72
2023/08/05 11:35:58;;;;;;;2.40;1.97;;;25.00;55.30;;;;;;5015434;28;20180;-72
2023/08/05 11:38:24;;;;;;;1.97;1.87;;;25.00;55.30;;;;;;5015367;28;20442;-72
2023/08/05 11:40:55;;;;;;;3.23;1.60;;;25.00;55.30;;;;;;5015278;28;20481;-72
2023/08/05 11:43:22;;;;;;;2.70;1.60;;;25.00;55.30;;;;;;5015500;28;20457;-72
2023/08/05 11:45:54;;;;;;;1.80;1.60;;;25.00;55.30;;;;;;5015233;28;20415;-71
2023/08/05 11:48:24;;;;;;;2.13;1.93;;;25.00;55.30;;;;;;5015186;28;20439;-72
2023/08/05 11:50:55;;;;;;;1.93;1.47;;;25.00;55.30;;;;;;5014040;28;21244;-72
2023/08/05 11:53:56;;;;;;;1.53;1.43;;;25.00;55.30;;;;;;5014979;28;20414;-70
2023/08/05 11:56:23;;;;;;;2.07;1.87;;;25.00;55.30;;;;;;4934072;29;20461;-72
2023/08/05 11:58:49;;;;;;;2.37;1.70;;;25.00;55.30;;;;;;4933486;29;20447;-72
2023/08/05 12:01:14;;;;;;;2.00;1.53;;;25.00;55.40;;;;;;4935272;29;20857;-70
2023/08/05 12:03:40;;;;;;;1.90;1.80;;;25.00;55.40;;;;;;4935215;29;20186;-72
2023/08/05 12:06:06;;;;;;;2.20;2.00;;;25.00;55.40;;;;;;4934499;29;20274;-73
2023/08/05 12:08:44;;;;;;;2.03;1.80;;;24.90;55.30;;;;;;4934923;29;20582;-72
2023/08/05 12:11:12;;;;;;;3.20;2.20;;;24.90;55.40;;;;;;4919145;29;20203;-71
2023/08/05 12:13:38;;;;;;;2.03;1.73;;;25.00;55.50;;;;;;4935061;29;20419;-72
2023/08/05 12:16:16;;;;;;;1.80;1.70;;;25.00;55.50;;;;;;4935033;29;21043;-72
2023/08/05 12:18:45;;;;;;;2.47;2.27;;;25.00;55.50;;;;;;4934921;29;20193;-71
2023/08/05 12:21:12;;;;;;;2.10;1.80;;;25.00;55.50;;;;;;4934970;29;20429;-72
2023/08/05 12:23:41;;;;;;;2.10;1.90;;;25.00;55.50;;;;;;4919032;29;20940;-69
2023/08/05 12:26:10;;;;;;;1.80;1.70;;;25.00;55.50;;;;;;4934677;29;20427;-72
2023/08/05 12:28:37;;;;;;;1.97;1.73;;;25.00;55.40;;;;;;4918807;29;20466;-72
2023/08/05 12:31:03;;;;;;;1.97;1.87;;;25.00;55.40;;;;;;4934543;29;20447;-69
2023/08/05 12:33:29;;;;;;;2.67;2.47;;;25.00;55.40;;;;;;4983257;28;20408;-71
2023/08/05 12:35:54;;;;;;;2.07;1.90;;;25.00;55.40;;;;;;5014222;28;20930;-71
2023/08/05 12:38:20;;;;;;;2.60;1.70;;;25.00;55.30;;;;;;5014391;28;20176;-71
2023/08/05 12:40:46;;;;;;;2.30;2.10;;;25.00;55.30;;;;;;4996391;28;20254;-72
2023/08/05 12:43:12;;;;;;;2.37;2.03;;;25.00;55.30;;;;;;5013981;28;20215;-71
2023/08/05 12:45:42;;;;;;;1.67;1.57;;;25.00;55.30;;;;;;5014152;28;20376;-71
2023/08/05 12:48:08;;;;;;;2.90;1.80;;;25.00;55.30;;;;;;5014001;28;20442;-71